sensor_id;sensor_type;location;lat;lon;timestamp;P1;durP1;ratioP1;P2;durP2;ratioP2
37785;SDS011;23625;48.784;9.336;2022-08-30T00:00:37;11.15;;;5.72;;
37785;SDS011;23625;48.784;9.336;2022-08-30T00:03:21;10.50;;;5.10;;
37785;SDS011;23625;48.784;9.336;2022-08-30T00:05:47;13.38;;;5.25;;
37785;SDS011;23625;48.784;9.336;2022-08-30T00:08:13;9.70;;;5.45;;
37785;SDS011;23625;48.784;9.336;2022-08-30T00:10:39;10.18;;;5.45;;
37785;SDS011;23625;48.784;9.336;2022-08-30T00:13:06;11.02;;;6.03;;
37785;SDS011;23625;48.784;9.336;2022-08-30T00:15:32;10.70;;;5.20;;
37785;SDS011;23625;48.784;9.336;2022-08-30T00:17:58;12.90;;;6.30;;
37785;SDS011;23625;48.784;9.336;2022-08-30T00:20:26;11.18;;;5.70;;
37785;SDS011;23625;48.784;9.336;2022-08-30T00:22:53;9.77;;;5.25;;
37785;SDS011;23625;48.784;9.336;2022-08-30T00:25:19;9.02;;;5.35;;
37785;SDS011;23625;48.784;9.336;2022-08-30T00:27:46;14.30;;;6.03;;
37785;SDS011;23625;48.784;9.336;2022-08-30T00:30:13;7.53;;;4.53;;
37785;SDS011;23625;48.784;9.336;2022-08-30T00:32:39;10.63;;;5.70;;
37785;SDS011;23625;48.784;9.336;2022-08-30T00:35:06;10.85;;;5.72;;
37785;SDS011;23625;48.784;9.336;2022-08-30T00:37:33;8.38;;;5.22;;
37785;SDS011;23625;48.784;9.336;2022-08-30T00:39:58;8.73;;;4.95;;
37785;SDS011;23625;48.784;9.336;2022-08-30T00:42:24;14.35;;;6.10;;
37785;SDS011;23625;48.784;9.336;2022-08-30T00:44:50;13.63;;;5.90;;
37785;SDS011;23625;48.784;9.336;2022-08-30T00:47:25;15.27;;;6.03;;
37785;SDS011;23625;48.784;9.336;2022-08-30T00:49:52;17.63;;;6.53;;
37785;SDS011;23625;48.784;9.336;2022-08-30T00:52:20;11.98;;;5.63;;
37785;SDS011;23625;48.784;9.336;2022-08-30T00:54:47;12.50;;;6.10;;
37785;SDS011;23625;48.784;9.336;2022-08-30T00:57:15;10.38;;;5.18;;
37785;SDS011;23625;48.784;9.336;2022-08-30T00:59:42;10.65;;;5.20;;
37785;SDS011;23625;48.784;9.336;2022-08-30T01:02:10;11.48;;;5.20;;
37785;SDS011;23625;48.784;9.336;2022-08-30T01:04:37;8.48;;;5.68;;
37785;SDS011;23625;48.784;9.336;2022-08-30T01:07:05;9.73;;;6.70;;
37785;SDS011;23625;48.784;9.336;2022-08-30T01:09:32;10.00;;;5.72;;
37785;SDS011;23625;48.784;9.336;2022-08-30T01:11:58;11.23;;;5.70;;
37785;SDS011;23625;48.784;9.336;2022-08-30T01:14:25;12.43;;;5.65;;
37785;SDS011;23625;48.784;9.336;2022-08-30T01:16:51;10.95;;;6.40;;
37785;SDS011;23625;48.784;9.336;2022-08-30T01:19:25;11.45;;;6.78;;
37785;SDS011;23625;48.784;9.336;2022-08-30T01:22:01;13.65;;;5.95;;
37785;SDS011;23625;48.784;9.336;2022-08-30T01:24:32;10.77;;;5.50;;
37785;SDS011;23625;48.784;9.336;2022-08-30T01:26:59;14.48;;;5.68;;
37785;SDS011;23625;48.784;9.336;2022-08-30T01:29:25;9.05;;;5.72;;
37785;SDS011;23625;48.784;9.336;2022-08-30T01:31:52;11.20;;;5.95;;
37785;SDS011;23625;48.784;9.336;2022-08-30T01:34:17;20.45;;;5.93;;
37785;SDS011;23625;48.784;9.336;2022-08-30T01:36:43;11.00;;;6.63;;
37785;SDS011;23625;48.784;9.336;2022-08-30T01:39:11;10.73;;;5.88;;
37785;SDS011;23625;48.784;9.336;2022-08-30T01:41:39;13.10;;;6.13;;
37785;SDS011;23625;48.784;9.336;2022-08-30T01:44:06;12.82;;;6.82;;
37785;SDS011;23625;48.784;9.336;2022-08-30T01:46:37;8.85;;;5.35;;
37785;SDS011;23625;48.784;9.336;2022-08-30T01:49:05;8.73;;;5.82;;
37785;SDS011;23625;48.784;9.336;2022-08-30T01:51:33;12.95;;;5.95;;
37785;SDS011;23625;48.784;9.336;2022-08-30T01:53:59;11.38;;;5.93;;
37785;SDS011;23625;48.784;9.336;2022-08-30T01:56:26;12.77;;;6.40;;
37785;SDS011;23625;48.784;9.336;2022-08-30T01:58:53;8.73;;;5.68;;
37785;SDS011;23625;48.784;9.336;2022-08-30T02:01:21;10.38;;;6.00;;
37785;SDS011;23625;48.784;9.336;2022-08-30T02:03:47;11.80;;;7.15;;
37785;SDS011;23625;48.784;9.336;2022-08-30T02:06:14;11.93;;;5.95;;
37785;SDS011;23625;48.784;9.336;2022-08-30T02:08:43;12.25;;;6.10;;
37785;SDS011;23625;48.784;9.336;2022-08-30T02:11:09;17.20;;;5.97;;
37785;SDS011;23625;48.784;9.336;2022-08-30T02:13:37;9.90;;;5.70;;
37785;SDS011;23625;48.784;9.336;2022-08-30T02:16:08;11.13;;;6.13;;
37785;SDS011;23625;48.784;9.336;2022-08-30T02:18:36;11.60;;;6.05;;
37785;SDS011;23625;48.784;9.336;2022-08-30T02:21:03;12.35;;;5.90;;
37785;SDS011;23625;48.784;9.336;2022-08-30T02:23:29;18.80;;;6.18;;
37785;SDS011;23625;48.784;9.336;2022-08-30T02:25:55;11.30;;;6.72;;
37785;SDS011;23625;48.784;9.336;2022-08-30T02:28:20;10.00;;;5.63;;
37785;SDS011;23625;48.784;9.336;2022-08-30T02:30:46;15.88;;;6.03;;
37785;SDS011;23625;48.784;9.336;2022-08-30T02:33:12;11.73;;;6.22;;
37785;SDS011;23625;48.784;9.336;2022-08-30T02:35:38;17.25;;;5.93;;
37785;SDS011;23625;48.784;9.336;2022-08-30T02:38:04;13.27;;;5.88;;
37785;SDS011;23625;48.784;9.336;2022-08-30T02:40:30;13.38;;;5.75;;
37785;SDS011;23625;48.784;9.336;2022-08-30T02:42:56;14.85;;;6.22;;
37785;SDS011;23625;48.784;9.336;2022-08-30T02:45:22;7.75;;;5.43;;
37785;SDS011;23625;48.784;9.336;2022-08-30T02:47:48;8.32;;;5.68;;
37785;SDS011;23625;48.784;9.336;2022-08-30T02:50:14;12.35;;;6.18;;
37785;SDS011;23625;48.784;9.336;2022-08-30T02:52:40;8.55;;;5.90;;
37785;SDS011;23625;48.784;9.336;2022-08-30T02:55:06;17.30;;;6.47;;
37785;SDS011;23625;48.784;9.336;2022-08-30T02:57:33;11.35;;;5.47;;
37785;SDS011;23625;48.784;9.336;2022-08-30T02:59:59;11.88;;;6.55;;
37785;SDS011;23625;48.784;9.336;2022-08-30T03:02:25;10.48;;;6.68;;
37785;SDS011;23625;48.784;9.336;2022-08-30T03:04:51;14.88;;;6.18;;
37785;SDS011;23625;48.784;9.336;2022-08-30T03:07:17;10.60;;;6.43;;
37785;SDS011;23625;48.784;9.336;2022-08-30T03:09:43;10.13;;;6.15;;
37785;SDS011;23625;48.784;9.336;2022-08-30T03:12:10;10.85;;;6.03;;
37785;SDS011;23625;48.784;9.336;2022-08-30T03:14:36;19.67;;;6.60;;
37785;SDS011;23625;48.784;9.336;2022-08-30T03:17:06;10.30;;;6.30;;
37785;SDS011;23625;48.784;9.336;2022-08-30T03:19:33;13.82;;;7.55;;
37785;SDS011;23625;48.784;9.336;2022-08-30T03:22:00;9.32;;;6.35;;
37785;SDS011;23625;48.784;9.336;2022-08-30T03:24:26;10.75;;;6.32;;
37785;SDS011;23625;48.784;9.336;2022-08-30T03:26:52;12.65;;;6.75;;
37785;SDS011;23625;48.784;9.336;2022-08-30T03:29:17;11.70;;;6.40;;
37785;SDS011;23625;48.784;9.336;2022-08-30T03:31:43;12.85;;;6.13;;
37785;SDS011;23625;48.784;9.336;2022-08-30T03:34:09;8.77;;;5.70;;
37785;SDS011;23625;48.784;9.336;2022-08-30T03:36:35;12.52;;;6.25;;
37785;SDS011;23625;48.784;9.336;2022-08-30T03:39:03;12.88;;;6.15;;
37785;SDS011;23625;48.784;9.336;2022-08-30T03:41:29;14.60;;;7.50;;
37785;SDS011;23625;48.784;9.336;2022-08-30T03:43:56;14.00;;;6.78;;
37785;SDS011;23625;48.784;9.336;2022-08-30T03:46:22;11.68;;;6.53;;
37785;SDS011;23625;48.784;9.336;2022-08-30T03:48:49;12.32;;;6.60;;
37785;SDS011;23625;48.784;9.336;2022-08-30T03:51:16;10.50;;;6.55;;
37785;SDS011;23625;48.784;9.336;2022-08-30T03:53:42;15.93;;;6.65;;
37785;SDS011;23625;48.784;9.336;2022-08-30T03:56:09;15.93;;;7.55;;
37785;SDS011;23625;48.784;9.336;2022-08-30T03:58:35;16.25;;;7.95;;
37785;SDS011;23625;48.784;9.336;2022-08-30T04:01:01;12.38;;;6.85;;
37785;SDS011;23625;48.784;9.336;2022-08-30T04:03:26;10.65;;;7.35;;
37785;SDS011;23625;48.784;9.336;2022-08-30T04:05:52;13.52;;;6.68;;
37785;SDS011;23625;48.784;9.336;2022-08-30T04:08:19;13.32;;;6.82;;
37785;SDS011;23625;48.784;9.336;2022-08-30T04:10:46;12.43;;;6.88;;
37785;SDS011;23625;48.784;9.336;2022-08-30T04:13:12;12.77;;;7.43;;
37785;SDS011;23625;48.784;9.336;2022-08-30T04:15:39;15.52;;;6.63;;
37785;SDS011;23625;48.784;9.336;2022-08-30T04:18:05;11.05;;;6.47;;
37785;SDS011;23625;48.784;9.336;2022-08-30T04:20:31;14.35;;;6.38;;
37785;SDS011;23625;48.784;9.336;2022-08-30T04:22:56;14.90;;;6.90;;
37785;SDS011;23625;48.784;9.336;2022-08-30T04:25:22;16.13;;;6.35;;
37785;SDS011;23625;48.784;9.336;2022-08-30T04:27:48;12.82;;;6.68;;
37785;SDS011;23625;48.784;9.336;2022-08-30T04:30:14;11.80;;;6.53;;
37785;SDS011;23625;48.784;9.336;2022-08-30T04:32:41;13.57;;;7.13;;
37785;SDS011;23625;48.784;9.336;2022-08-30T04:35:07;13.48;;;7.93;;
37785;SDS011;23625;48.784;9.336;2022-08-30T04:37:34;17.63;;;7.25;;
37785;SDS011;23625;48.784;9.336;2022-08-30T04:40:02;17.23;;;7.55;;
37785;SDS011;23625;48.784;9.336;2022-08-30T04:42:30;11.20;;;6.00;;
37785;SDS011;23625;48.784;9.336;2022-08-30T04:44:58;10.65;;;6.50;;
37785;SDS011;23625;48.784;9.336;2022-08-30T04:47:25;12.55;;;7.72;;
37785;SDS011;23625;48.784;9.336;2022-08-30T04:49:51;11.18;;;6.75;;
37785;SDS011;23625;48.784;9.336;2022-08-30T04:52:17;10.82;;;6.40;;
37785;SDS011;23625;48.784;9.336;2022-08-30T04:54:43;14.52;;;7.20;;
37785;SDS011;23625;48.784;9.336;2022-08-30T04:57:09;14.15;;;7.88;;
37785;SDS011;23625;48.784;9.336;2022-08-30T04:59:34;14.88;;;7.40;;
37785;SDS011;23625;48.784;9.336;2022-08-30T05:02:01;18.83;;;7.82;;
37785;SDS011;23625;48.784;9.336;2022-08-30T05:04:27;13.70;;;6.93;;
37785;SDS011;23625;48.784;9.336;2022-08-30T05:06:52;17.42;;;7.13;;
37785;SDS011;23625;48.784;9.336;2022-08-30T05:09:19;15.98;;;7.07;;
37785;SDS011;23625;48.784;9.336;2022-08-30T05:11:45;14.25;;;7.75;;
37785;SDS011;23625;48.784;9.336;2022-08-30T05:14:11;11.68;;;7.22;;
37785;SDS011;23625;48.784;9.336;2022-08-30T05:16:37;12.43;;;7.93;;
37785;SDS011;23625;48.784;9.336;2022-08-30T05:19:03;13.30;;;7.78;;
37785;SDS011;23625;48.784;9.336;2022-08-30T05:21:29;12.38;;;7.38;;
37785;SDS011;23625;48.784;9.336;2022-08-30T05:23:55;12.68;;;7.82;;
37785;SDS011;23625;48.784;9.336;2022-08-30T05:26:28;11.73;;;7.35;;
37785;SDS011;23625;48.784;9.336;2022-08-30T05:28:56;13.10;;;7.75;;
37785;SDS011;23625;48.784;9.336;2022-08-30T05:31:23;14.05;;;7.47;;
37785;SDS011;23625;48.784;9.336;2022-08-30T05:33:51;13.98;;;7.50;;
37785;SDS011;23625;48.784;9.336;2022-08-30T05:36:18;16.00;;;8.35;;
37785;SDS011;23625;48.784;9.336;2022-08-30T05:38:46;14.43;;;7.82;;
37785;SDS011;23625;48.784;9.336;2022-08-30T05:41:11;15.07;;;8.55;;
37785;SDS011;23625;48.784;9.336;2022-08-30T05:43:37;12.93;;;7.68;;
37785;SDS011;23625;48.784;9.336;2022-08-30T05:46:10;24.17;;;8.68;;
37785;SDS011;23625;48.784;9.336;2022-08-30T05:48:37;15.00;;;7.72;;
37785;SDS011;23625;48.784;9.336;2022-08-30T05:53:31;18.35;;;8.82;;
37785;SDS011;23625;48.784;9.336;2022-08-30T05:55:59;13.98;;;7.50;;
37785;SDS011;23625;48.784;9.336;2022-08-30T05:58:28;13.25;;;7.65;;
37785;SDS011;23625;48.784;9.336;2022-08-30T06:00:55;12.18;;;7.72;;
37785;SDS011;23625;48.784;9.336;2022-08-30T06:03:21;14.05;;;7.10;;
37785;SDS011;23625;48.784;9.336;2022-08-30T06:05:46;17.42;;;8.13;;
37785;SDS011;23625;48.784;9.336;2022-08-30T06:08:12;17.55;;;8.55;;
37785;SDS011;23625;48.784;9.336;2022-08-30T06:10:37;17.77;;;8.23;;
37785;SDS011;23625;48.784;9.336;2022-08-30T06:13:03;18.58;;;9.10;;
37785;SDS011;23625;48.784;9.336;2022-08-30T06:15:29;13.38;;;8.13;;
37785;SDS011;23625;48.784;9.336;2022-08-30T06:17:54;23.52;;;9.15;;
37785;SDS011;23625;48.784;9.336;2022-08-30T06:20:20;18.35;;;8.45;;
37785;SDS011;23625;48.784;9.336;2022-08-30T06:22:46;15.93;;;8.60;;
37785;SDS011;23625;48.784;9.336;2022-08-30T06:25:11;19.08;;;8.88;;
37785;SDS011;23625;48.784;9.336;2022-08-30T06:27:38;14.55;;;7.90;;
37785;SDS011;23625;48.784;9.336;2022-08-30T06:30:04;22.55;;;10.10;;
37785;SDS011;23625;48.784;9.336;2022-08-30T06:32:35;13.20;;;8.15;;
37785;SDS011;23625;48.784;9.336;2022-08-30T06:35:01;17.83;;;8.50;;
37785;SDS011;23625;48.784;9.336;2022-08-30T06:37:27;14.43;;;7.70;;
37785;SDS011;23625;48.784;9.336;2022-08-30T06:39:52;18.98;;;7.70;;
37785;SDS011;23625;48.784;9.336;2022-08-30T06:42:18;14.48;;;7.88;;
37785;SDS011;23625;48.784;9.336;2022-08-30T06:44:44;15.40;;;8.68;;
37785;SDS011;23625;48.784;9.336;2022-08-30T06:47:10;15.25;;;7.63;;
37785;SDS011;23625;48.784;9.336;2022-08-30T06:49:36;15.80;;;8.30;;
37785;SDS011;23625;48.784;9.336;2022-08-30T06:52:01;15.65;;;8.85;;
37785;SDS011;23625;48.784;9.336;2022-08-30T06:54:27;15.93;;;7.68;;
37785;SDS011;23625;48.784;9.336;2022-08-30T06:56:53;15.20;;;7.45;;
37785;SDS011;23625;48.784;9.336;2022-08-30T06:59:19;16.30;;;7.13;;
37785;SDS011;23625;48.784;9.336;2022-08-30T07:01:44;16.65;;;8.00;;
37785;SDS011;23625;48.784;9.336;2022-08-30T07:04:10;15.07;;;6.90;;
37785;SDS011;23625;48.784;9.336;2022-08-30T07:06:35;14.32;;;7.15;;
37785;SDS011;23625;48.784;9.336;2022-08-30T07:09:01;15.15;;;7.35;;
37785;SDS011;23625;48.784;9.336;2022-08-30T07:11:28;15.38;;;7.85;;
37785;SDS011;23625;48.784;9.336;2022-08-30T07:13:56;16.17;;;7.78;;
37785;SDS011;23625;48.784;9.336;2022-08-30T07:16:22;14.93;;;8.00;;
37785;SDS011;23625;48.784;9.336;2022-08-30T07:18:48;12.38;;;7.25;;
37785;SDS011;23625;48.784;9.336;2022-08-30T07:21:22;13.15;;;7.38;;
37785;SDS011;23625;48.784;9.336;2022-08-30T07:23:53;13.35;;;6.75;;
37785;SDS011;23625;48.784;9.336;2022-08-30T07:26:22;16.05;;;6.60;;
37785;SDS011;23625;48.784;9.336;2022-08-30T07:28:50;13.70;;;7.30;;
37785;SDS011;23625;48.784;9.336;2022-08-30T07:31:16;12.73;;;6.43;;
37785;SDS011;23625;48.784;9.336;2022-08-30T07:33:43;15.63;;;7.45;;
37785;SDS011;23625;48.784;9.336;2022-08-30T07:36:10;10.95;;;6.45;;
37785;SDS011;23625;48.784;9.336;2022-08-30T07:38:39;13.07;;;6.65;;
37785;SDS011;23625;48.784;9.336;2022-08-30T07:41:05;9.80;;;6.05;;
37785;SDS011;23625;48.784;9.336;2022-08-30T07:43:31;12.40;;;6.15;;
37785;SDS011;23625;48.784;9.336;2022-08-30T07:46:02;13.32;;;5.53;;
37785;SDS011;23625;48.784;9.336;2022-08-30T07:48:29;13.63;;;7.10;;
37785;SDS011;23625;48.784;9.336;2022-08-30T07:50:55;11.10;;;6.03;;
37785;SDS011;23625;48.784;9.336;2022-08-30T07:53:20;12.50;;;6.30;;
37785;SDS011;23625;48.784;9.336;2022-08-30T07:55:46;10.43;;;5.75;;
37785;SDS011;23625;48.784;9.336;2022-08-30T07:58:11;8.63;;;5.90;;
37785;SDS011;23625;48.784;9.336;2022-08-30T08:00:37;10.80;;;5.88;;
37785;SDS011;23625;48.784;9.336;2022-08-30T08:03:03;11.13;;;5.90;;
37785;SDS011;23625;48.784;9.336;2022-08-30T08:05:37;13.82;;;6.13;;
37785;SDS011;23625;48.784;9.336;2022-08-30T08:08:08;12.00;;;5.75;;
37785;SDS011;23625;48.784;9.336;2022-08-30T08:10:37;10.50;;;5.45;;
37785;SDS011;23625;48.784;9.336;2022-08-30T08:13:04;12.65;;;6.47;;
37785;SDS011;23625;48.784;9.336;2022-08-30T08:15:30;7.90;;;5.85;;
37785;SDS011;23625;48.784;9.336;2022-08-30T08:17:56;13.10;;;6.03;;
37785;SDS011;23625;48.784;9.336;2022-08-30T08:20:22;10.10;;;5.93;;
37785;SDS011;23625;48.784;9.336;2022-08-30T08:22:50;8.10;;;5.65;;
37785;SDS011;23625;48.784;9.336;2022-08-30T08:25:15;11.40;;;5.82;;
37785;SDS011;23625;48.784;9.336;2022-08-30T08:27:41;10.93;;;5.68;;
37785;SDS011;23625;48.784;9.336;2022-08-30T08:30:07;8.05;;;5.47;;
37785;SDS011;23625;48.784;9.336;2022-08-30T08:32:33;12.60;;;5.65;;
37785;SDS011;23625;48.784;9.336;2022-08-30T08:34:59;16.58;;;6.07;;
37785;SDS011;23625;48.784;9.336;2022-08-30T08:37:24;15.60;;;5.60;;
37785;SDS011;23625;48.784;9.336;2022-08-30T08:39:51;12.93;;;5.75;;
37785;SDS011;23625;48.784;9.336;2022-08-30T08:42:24;7.70;;;5.50;;
37785;SDS011;23625;48.784;9.336;2022-08-30T08:45:13;8.80;;;5.40;;
37785;SDS011;23625;48.784;9.336;2022-08-30T08:50:27;9.18;;;4.82;;
37785;SDS011;23625;48.784;9.336;2022-08-30T08:55:56;7.43;;;5.13;;
37785;SDS011;23625;48.784;9.336;2022-08-30T08:58:23;9.00;;;4.78;;
37785;SDS011;23625;48.784;9.336;2022-08-30T09:00:51;9.75;;;5.88;;
37785;SDS011;23625;48.784;9.336;2022-08-30T09:03:18;9.73;;;5.35;;
37785;SDS011;23625;48.784;9.336;2022-08-30T09:05:46;9.65;;;5.82;;
37785;SDS011;23625;48.784;9.336;2022-08-30T09:08:13;8.80;;;5.65;;
37785;SDS011;23625;48.784;9.336;2022-08-30T09:10:59;10.30;;;5.28;;
37785;SDS011;23625;48.784;9.336;2022-08-30T09:13:28;11.68;;;4.70;;
37785;SDS011;23625;48.784;9.336;2022-08-30T09:15:54;8.27;;;5.00;;
37785;SDS011;23625;48.784;9.336;2022-08-30T09:21:08;10.43;;;5.22;;
37785;SDS011;23625;48.784;9.336;2022-08-30T09:23:34;8.35;;;5.35;;
37785;SDS011;23625;48.784;9.336;2022-08-30T09:26:03;6.63;;;4.97;;
37785;SDS011;23625;48.784;9.336;2022-08-30T09:33:31;10.48;;;5.18;;
37785;SDS011;23625;48.784;9.336;2022-08-30T09:36:09;8.13;;;5.53;;
37785;SDS011;23625;48.784;9.336;2022-08-30T09:38:40;10.50;;;5.05;;
37785;SDS011;23625;48.784;9.336;2022-08-30T09:44:13;8.68;;;4.78;;
37785;SDS011;23625;48.784;9.336;2022-08-30T09:46:51;9.07;;;4.88;;
37785;SDS011;23625;48.784;9.336;2022-08-30T09:49:24;8.75;;;5.03;;
37785;SDS011;23625;48.784;9.336;2022-08-30T09:52:16;12.13;;;5.47;;
37785;SDS011;23625;48.784;9.336;2022-08-30T09:58:17;8.52;;;4.70;;
37785;SDS011;23625;48.784;9.336;2022-08-30T10:01:13;8.40;;;5.47;;
37785;SDS011;23625;48.784;9.336;2022-08-30T10:06:50;8.38;;;4.18;;
37785;SDS011;23625;48.784;9.336;2022-08-30T10:18:11;7.72;;;4.80;;
37785;SDS011;23625;48.784;9.336;2022-08-30T10:20:59;6.05;;;4.50;;
37785;SDS011;23625;48.784;9.336;2022-08-30T10:23:50;5.72;;;4.35;;
37785;SDS011;23625;48.784;9.336;2022-08-30T10:26:42;7.50;;;4.53;;
37785;SDS011;23625;48.784;9.336;2022-08-30T10:29:12;6.32;;;4.78;;
37785;SDS011;23625;48.784;9.336;2022-08-30T10:34:41;7.43;;;4.60;;
37785;SDS011;23625;48.784;9.336;2022-08-30T10:37:13;9.15;;;4.47;;
37785;SDS011;23625;48.784;9.336;2022-08-30T10:39:46;8.60;;;4.57;;
37785;SDS011;23625;48.784;9.336;2022-08-30T10:42:24;8.02;;;4.82;;
37785;SDS011;23625;48.784;9.336;2022-08-30T10:44:56;6.88;;;4.75;;
37785;SDS011;23625;48.784;9.336;2022-08-30T10:50:43;6.85;;;4.53;;
37785;SDS011;23625;48.784;9.336;2022-08-30T10:53:31;6.55;;;4.20;;
37785;SDS011;23625;48.784;9.336;2022-08-30T10:56:08;7.80;;;4.00;;
37785;SDS011;23625;48.784;9.336;2022-08-30T10:58:38;5.97;;;4.45;;
37785;SDS011;23625;48.784;9.336;2022-08-30T11:03:41;17.45;;;9.73;;
37785;SDS011;23625;48.784;9.336;2022-08-30T11:06:38;11.13;;;6.55;;
37785;SDS011;23625;48.784;9.336;2022-08-30T11:14:55;9.48;;;4.40;;
37785;SDS011;23625;48.784;9.336;2022-08-30T11:17:23;7.72;;;5.10;;
37785;SDS011;23625;48.784;9.336;2022-08-30T11:19:49;6.15;;;4.72;;
37785;SDS011;23625;48.784;9.336;2022-08-30T11:22:24;7.97;;;5.05;;
37785;SDS011;23625;48.784;9.336;2022-08-30T11:27:50;9.18;;;4.53;;
37785;SDS011;23625;48.784;9.336;2022-08-30T11:32:57;5.82;;;4.07;;
37785;SDS011;23625;48.784;9.336;2022-08-30T11:35:37;6.88;;;4.43;;
37785;SDS011;23625;48.784;9.336;2022-08-30T11:43:47;7.57;;;4.70;;
37785;SDS011;23625;48.784;9.336;2022-08-30T11:48:53;6.30;;;4.07;;
37785;SDS011;23625;48.784;9.336;2022-08-30T11:54:52;6.75;;;4.13;;
37785;SDS011;23625;48.784;9.336;2022-08-30T12:02:48;6.50;;;4.13;;
37785;SDS011;23625;48.784;9.336;2022-08-30T12:10:40;6.63;;;4.55;;
37785;SDS011;23625;48.784;9.336;2022-08-30T12:13:09;7.95;;;4.20;;
37785;SDS011;23625;48.784;9.336;2022-08-30T12:16:10;7.75;;;4.57;;
37785;SDS011;23625;48.784;9.336;2022-08-30T12:18:45;5.63;;;4.20;;
37785;SDS011;23625;48.784;9.336;2022-08-30T12:21:13;6.32;;;4.20;;
37785;SDS011;23625;48.784;9.336;2022-08-30T12:24:06;7.97;;;4.68;;
37785;SDS011;23625;48.784;9.336;2022-08-30T12:26:43;6.00;;;4.20;;
37785;SDS011;23625;48.784;9.336;2022-08-30T12:29:26;5.93;;;4.28;;
37785;SDS011;23625;48.784;9.336;2022-08-30T12:34:28;5.20;;;4.22;;
37785;SDS011;23625;48.784;9.336;2022-08-30T12:36:59;13.00;;;5.35;;
37785;SDS011;23625;48.784;9.336;2022-08-30T12:39:31;7.72;;;4.10;;
37785;SDS011;23625;48.784;9.336;2022-08-30T12:44:37;6.60;;;4.28;;
37785;SDS011;23625;48.784;9.336;2022-08-30T12:47:03;6.80;;;3.90;;
37785;SDS011;23625;48.784;9.336;2022-08-30T12:49:33;8.68;;;4.82;;
37785;SDS011;23625;48.784;9.336;2022-08-30T12:54:41;7.63;;;4.20;;
37785;SDS011;23625;48.784;9.336;2022-08-30T12:57:07;7.63;;;4.38;;
37785;SDS011;23625;48.784;9.336;2022-08-30T13:04:53;8.35;;;4.53;;
37785;SDS011;23625;48.784;9.336;2022-08-30T13:07:37;6.57;;;4.15;;
37785;SDS011;23625;48.784;9.336;2022-08-30T13:10:07;7.13;;;3.92;;
37785;SDS011;23625;48.784;9.336;2022-08-30T13:12:40;6.55;;;3.65;;
37785;SDS011;23625;48.784;9.336;2022-08-30T13:15:27;7.30;;;4.10;;
37785;SDS011;23625;48.784;9.336;2022-08-30T13:23:47;4.93;;;4.03;;
37785;SDS011;23625;48.784;9.336;2022-08-30T13:26:13;4.78;;;3.65;;
37785;SDS011;23625;48.784;9.336;2022-08-30T13:28:49;10.75;;;4.57;;
37785;SDS011;23625;48.784;9.336;2022-08-30T13:31:20;4.32;;;3.53;;
37785;SDS011;23625;48.784;9.336;2022-08-30T13:33:45;6.38;;;3.90;;
37785;SDS011;23625;48.784;9.336;2022-08-30T13:36:14;5.68;;;4.03;;
37785;SDS011;23625;48.784;9.336;2022-08-30T13:38:40;9.77;;;4.15;;
37785;SDS011;23625;48.784;9.336;2022-08-30T13:41:06;15.27;;;4.28;;
37785;SDS011;23625;48.784;9.336;2022-08-30T13:43:32;5.30;;;3.33;;
37785;SDS011;23625;48.784;9.336;2022-08-30T13:45:58;5.93;;;4.32;;
37785;SDS011;23625;48.784;9.336;2022-08-30T13:48:24;5.57;;;4.35;;
37785;SDS011;23625;48.784;9.336;2022-08-30T13:50:50;6.28;;;3.90;;
37785;SDS011;23625;48.784;9.336;2022-08-30T13:53:17;8.73;;;4.13;;
37785;SDS011;23625;48.784;9.336;2022-08-30T13:55:43;7.25;;;4.03;;
37785;SDS011;23625;48.784;9.336;2022-08-30T13:58:09;7.63;;;4.28;;
37785;SDS011;23625;48.784;9.336;2022-08-30T14:00:34;5.25;;;3.80;;
37785;SDS011;23625;48.784;9.336;2022-08-30T14:03:00;7.70;;;4.80;;
37785;SDS011;23625;48.784;9.336;2022-08-30T14:05:27;6.13;;;4.18;;
37785;SDS011;23625;48.784;9.336;2022-08-30T14:07:55;7.35;;;4.50;;
37785;SDS011;23625;48.784;9.336;2022-08-30T14:10:21;6.65;;;4.38;;
37785;SDS011;23625;48.784;9.336;2022-08-30T14:12:49;7.95;;;4.22;;
37785;SDS011;23625;48.784;9.336;2022-08-30T14:15:15;7.88;;;4.20;;
37785;SDS011;23625;48.784;9.336;2022-08-30T14:17:41;4.95;;;3.92;;
37785;SDS011;23625;48.784;9.336;2022-08-30T14:20:06;10.80;;;4.13;;
37785;SDS011;23625;48.784;9.336;2022-08-30T14:22:32;7.80;;;4.10;;
37785;SDS011;23625;48.784;9.336;2022-08-30T14:24:58;4.88;;;4.05;;
37785;SDS011;23625;48.784;9.336;2022-08-30T14:27:25;6.68;;;3.95;;
37785;SDS011;23625;48.784;9.336;2022-08-30T14:29:52;8.95;;;4.03;;
37785;SDS011;23625;48.784;9.336;2022-08-30T14:32:17;6.50;;;4.07;;
37785;SDS011;23625;48.784;9.336;2022-08-30T14:34:43;6.50;;;4.30;;
37785;SDS011;23625;48.784;9.336;2022-08-30T14:37:08;5.55;;;4.30;;
37785;SDS011;23625;48.784;9.336;2022-08-30T14:39:34;7.97;;;4.07;;
37785;SDS011;23625;48.784;9.336;2022-08-30T14:42:00;5.90;;;4.10;;
37785;SDS011;23625;48.784;9.336;2022-08-30T14:44:26;5.00;;;4.20;;
37785;SDS011;23625;48.784;9.336;2022-08-30T14:46:52;8.35;;;4.65;;
37785;SDS011;23625;48.784;9.336;2022-08-30T14:49:18;6.00;;;4.35;;
37785;SDS011;23625;48.784;9.336;2022-08-30T14:51:44;9.40;;;4.13;;
37785;SDS011;23625;48.784;9.336;2022-08-30T14:54:10;6.95;;;4.80;;
37785;SDS011;23625;48.784;9.336;2022-08-30T14:56:37;6.35;;;4.05;;
37785;SDS011;23625;48.784;9.336;2022-08-30T14:59:03;7.72;;;4.25;;
37785;SDS011;23625;48.784;9.336;2022-08-30T15:01:30;9.63;;;4.53;;
37785;SDS011;23625;48.784;9.336;2022-08-30T15:03:56;5.05;;;3.75;;
37785;SDS011;23625;48.784;9.336;2022-08-30T15:06:22;7.47;;;4.38;;
37785;SDS011;23625;48.784;9.336;2022-08-30T15:08:48;5.22;;;4.28;;
37785;SDS011;23625;48.784;9.336;2022-08-30T15:11:15;5.88;;;4.25;;
37785;SDS011;23625;48.784;9.336;2022-08-30T15:13:42;8.35;;;4.60;;
37785;SDS011;23625;48.784;9.336;2022-08-30T15:18:41;6.07;;;4.30;;
37785;SDS011;23625;48.784;9.336;2022-08-30T15:21:07;5.40;;;4.30;;
37785;SDS011;23625;48.784;9.336;2022-08-30T15:23:33;9.15;;;4.30;;
37785;SDS011;23625;48.784;9.336;2022-08-30T15:25:59;7.75;;;4.18;;
37785;SDS011;23625;48.784;9.336;2022-08-30T15:28:25;8.68;;;4.40;;
37785;SDS011;23625;48.784;9.336;2022-08-30T15:30:51;7.60;;;4.65;;
37785;SDS011;23625;48.784;9.336;2022-08-30T15:33:16;8.00;;;3.97;;
37785;SDS011;23625;48.784;9.336;2022-08-30T15:35:42;8.50;;;4.70;;
37785;SDS011;23625;48.784;9.336;2022-08-30T15:38:08;5.18;;;4.20;;
37785;SDS011;23625;48.784;9.336;2022-08-30T15:40:34;8.68;;;4.47;;
37785;SDS011;23625;48.784;9.336;2022-08-30T15:43:02;6.72;;;4.10;;
37785;SDS011;23625;48.784;9.336;2022-08-30T15:45:29;7.82;;;4.20;;
37785;SDS011;23625;48.784;9.336;2022-08-30T15:47:57;9.60;;;4.28;;
37785;SDS011;23625;48.784;9.336;2022-08-30T15:50:24;6.95;;;4.60;;
37785;SDS011;23625;48.784;9.336;2022-08-30T15:52:50;6.25;;;4.20;;
37785;SDS011;23625;48.784;9.336;2022-08-30T15:55:16;7.78;;;4.22;;
37785;SDS011;23625;48.784;9.336;2022-08-30T15:57:41;7.18;;;4.53;;
37785;SDS011;23625;48.784;9.336;2022-08-30T16:00:08;8.95;;;4.60;;
37785;SDS011;23625;48.784;9.336;2022-08-30T16:02:35;6.28;;;4.63;;
37785;SDS011;23625;48.784;9.336;2022-08-30T16:05:01;8.23;;;4.65;;
37785;SDS011;23625;48.784;9.336;2022-08-30T16:07:27;8.10;;;4.80;;
37785;SDS011;23625;48.784;9.336;2022-08-30T16:09:53;4.93;;;4.35;;
37785;SDS011;23625;48.784;9.336;2022-08-30T16:12:18;9.85;;;4.70;;
37785;SDS011;23625;48.784;9.336;2022-08-30T16:14:44;9.68;;;4.60;;
37785;SDS011;23625;48.784;9.336;2022-08-30T16:17:10;7.55;;;4.90;;
37785;SDS011;23625;48.784;9.336;2022-08-30T16:19:35;8.23;;;4.75;;
37785;SDS011;23625;48.784;9.336;2022-08-30T16:22:02;6.78;;;4.60;;
37785;SDS011;23625;48.784;9.336;2022-08-30T16:24:28;6.18;;;3.92;;